Bandon, OR

10:05 PM PST on December 02, 2016 (GMT -0800)
KORBANDO2 | | Change Station
Active Advisory: Beach Hazard Statement

Elev 77 ft 43.12 °N, 124.43 °W | Updated 21 seconds ago

Overcast
Overcast
49.3 °F
Feels Like 46 °F
N
9.0
Wind Variable Wind from SSW
Gusts 15.0 mph

Today
High -- | Low -- °F
--% Chance of Precip.
Yesterday
High -- | Low -- °F
Precip. -- in
Pressure 30.33 in
Visibility 10.0 miles
Clouds Overcast 700 ft
Windchill 46 °F
Dew Point 47 °F
Humidity 93%
Rainfall 0.00 in
Snow Depth Not available.
7:31 AM 4:43 PM
Waxing Crescent, 13% visible
METAR KOTH 030555Z 14007KT 10SM OVC007 09/08 A3033 RMK AO1 P0001 60001 10100 20090 52003
Pressure 30.33 in
Visibility 10.0 miles
Clouds Overcast 700 ft
Windchill 46 °F
Dew Point 47 °F
Humidity 93%
Rainfall 0.00 in
Snow Depth Not available.
7:31 AM 4:43 PM
Waxing Crescent, 13% visible
METAR KOTH 030555Z 14007KT 10SM OVC007 09/08 A3033 RMK AO1 P0001 60001 10100 20090 52003

10-Day Weather Forecast

Almanac

Astronomy

Dec. 02, 2016 Rise Set
Actual Time
Civil Twilight
Nautical Twilight
Astronomical Twilight
Moon
Length of Visible Light
Length of Day
Tomorrow will be .
, % of the Moon is Illuminated

Today's Extremes

State Highs State Lows

Community

WunderPhotos

Upload Photos

1,955,432 photos uploaded!

WunderBlog® & News

Nearby

Air Quality

  Air Quality AQ Index Pollutant
Not available.

Snow Depth

Station Depth Elevation

Earthquake Activity

City Distance Mag. Time & Date
Minimum magnitude displayed is 2.5.

Coastal Water Temperatures

Place Temperature

Stations

Nearby Weather Stations

Station Location Temp. Windchill Dew Point Humidity Wind Precip. Elev Updated Type
                   

Watches & Warnings

Beach Hazard Statement
Issued: 2:30 PM PST Dec. 2, 2016 – National Weather Service

... Beach hazards statement remains in effect from late tonight
   through Saturday afternoon...

* hazards... northwest swell around 16 feet will produce 23 foot
breakers in the surf zone.

* Timing... large breakers are expected most of the day on Saturday
with highest potential for dangerous wave runup on beaches late
Saturday afternoon... around high tide.

* Locations include... all beaches... but especially west and
northwest facing beaches.

* Potential impacts... wave runup on beaches will be higher than
normal. Jetties and the surf zone will be especially
dangerous.

* View the hazard area in detail at
http://weather.Gov/Medford/hazard

Precautionary/preparedness actions...

A beach hazards statement is issued when threats such as rip
currents... longshore currents... sneaker waves and other hazards
create life-threatening conditions in the surf zone. Caution
should be used when in or near the water. Always keep an eye on
the ocean.



Stockton